Time;durP1;ratioP1;P1;durP2;ratioP2;P2;SDS_P1;SDS_P2;PMS_P1;PMS_P2;Temp;Humidity;BMP_temperature;BMP_pressure;BME280_temperature;BME280_humidity;BME280_pressure;Samples;Min_cycle;Max_cycle;Signal;HPM_P1;HPM_P2
2021/11/18 00:02:13;;;;;;;116.43;68.45;;;;;;;;;;6324576;22;20010;-80
2021/11/18 00:05:36;;;;;;;116.75;68.93;;;;;;;;;;6333451;22;20046;-80
2021/11/18 00:08:07;;;;;;;108.30;67.78;;;;;;;;;;6240695;22;20001;-79
2021/11/18 00:10:43;;;;;;;107.57;66.05;;;;;;;;;;6214086;23;19993;-79
2021/11/18 00:13:40;;;;;;;95.60;62.00;;;;;;;;;;6216262;23;20012;-80
2021/11/18 00:16:32;;;;;;;88.22;59.50;;;;;;;;;;6162407;23;20134;-80
2021/11/18 00:19:04;;;;;;;94.10;60.78;;;;;;;;;;6181047;23;20008;-80
2021/11/18 00:22:03;;;;;;;84.53;55.67;;;;;;;;;;6157155;23;20017;-80
2021/11/18 00:25:12;;;;;;;81.57;53.85;;;;;;;;;;6173787;23;20024;-80
2021/11/18 00:27:47;;;;;;;88.75;54.33;;;;;;;;;;6180960;23;20061;-80
2021/11/18 00:30:35;;;;;;;73.10;51.85;;;;;;;;;;6176706;23;20030;-80
2021/11/18 00:33:25;;;;;;;73.28;50.97;;;;;;;;;;6132244;23;20037;-79
2021/11/18 00:35:55;;;;;;;74.07;52.13;;;;;;;;;;6180672;23;19993;-80
2021/11/18 00:38:45;;;;;;;77.93;52.75;;;;;;;;;;6181268;23;20013;-80
2021/11/18 00:41:40;;;;;;;78.70;54.13;;;;;;;;;;6181071;23;20064;-80
2021/11/18 00:52:37;;;;;;;80.03;53.92;;;;;;;;;;6329533;22;20007;-80
2021/11/18 00:55:10;;;;;;;77.10;53.38;;;;;;;;;;6336969;22;20071;-81
2021/11/18 00:57:50;;;;;;;80.32;53.58;;;;;;;;;;6362723;22;20002;-80
2021/11/18 01:00:31;;;;;;;78.55;52.58;;;;;;;;;;6293075;22;19995;-80
2021/11/18 01:02:59;;;;;;;80.85;54.83;;;;;;;;;;6354909;22;20002;-80
2021/11/18 01:05:36;;;;;;;80.63;53.65;;;;;;;;;;6360788;22;19997;-81
2021/11/18 01:08:04;;;;;;;83.88;56.42;;;;;;;;;;6337648;22;20424;-80
2021/11/18 01:10:53;;;;;;;82.35;55.28;;;;;;;;;;6288674;22;19990;-80
2021/11/18 01:13:41;;;;;;;84.78;56.67;;;;;;;;;;6300965;22;20001;-79
2021/11/18 01:16:11;;;;;;;84.82;56.67;;;;;;;;;;6339892;22;20016;-79
2021/11/18 01:21:48;;;;;;;95.57;61.95;;;;;;;;;;6367202;22;20045;-80
2021/11/18 01:24:38;;;;;;;154.95;95.32;;;;;;;;;;6367443;22;20006;-81
2021/11/18 01:27:55;;;;;;;178.90;106.90;;;;;;;;;;6366253;22;20007;-80
2021/11/18 01:30:53;;;;;;;96.10;64.38;;;;;;;;;;6341871;22;20009;-80
2021/11/18 01:34:08;;;;;;;92.60;58.35;;;;;;;;;;6213361;23;20044;-78
2021/11/18 01:36:41;;;;;;;97.50;58.38;;;;;;;;;;6069323;23;19995;-79
2021/11/18 01:54:51;;;;;;;82.68;55.97;;;;;;;;;;6347414;22;20022;-79
2021/11/18 02:03:00;;;;;;;78.47;54.50;;;;;;;;;;6338047;22;20079;-80
2021/11/18 02:06:07;;;;;;;81.15;56.53;;;;;;;;;;6308247;22;20021;-79
2021/11/18 02:09:07;;;;;;;78.25;54.53;;;;;;;;;;6304768;22;20010;-80
2021/11/18 02:12:12;;;;;;;85.45;57.17;;;;;;;;;;6298377;22;20125;-79
2021/11/18 02:15:22;;;;;;;87.90;57.15;;;;;;;;;;6212799;23;20013;-80
2021/11/18 02:18:43;;;;;;;84.80;55.53;;;;;;;;;;6209690;23;20020;-80
2021/11/18 02:21:26;;;;;;;77.13;55.75;;;;;;;;;;6212597;23;20024;-79
2021/11/18 02:24:06;;;;;;;90.13;58.35;;;;;;;;;;6212845;23;20008;-80
2021/11/18 02:26:57;;;;;;;91.05;60.42;;;;;;;;;;6184216;23;20013;-78
2021/11/18 02:29:38;;;;;;;88.75;63.10;;;;;;;;;;6207922;23;20052;-80
2021/11/18 02:35:15;;;;;;;87.30;61.67;;;;;;;;;;6333048;22;20010;-80
2021/11/18 02:38:22;;;;;;;91.35;63.08;;;;;;;;;;6303893;22;20047;-81
2021/11/18 02:41:15;;;;;;;89.43;61.22;;;;;;;;;;6253737;22;20030;-79
2021/11/18 02:44:08;;;;;;;94.82;64.03;;;;;;;;;;6276631;22;19988;-80
2021/11/18 02:46:56;;;;;;;91.05;62.63;;;;;;;;;;6279104;22;19992;-80
2021/11/18 02:49:26;;;;;;;99.13;65.30;;;;;;;;;;6304129;22;20008;-80
2021/11/18 02:52:14;;;;;;;97.20;66.85;;;;;;;;;;6182608;23;20013;-80
2021/11/18 02:55:10;;;;;;;96.50;66.35;;;;;;;;;;6163558;23;20020;-80
2021/11/18 02:57:59;;;;;;;96.15;63.72;;;;;;;;;;6162578;23;20010;-81
2021/11/18 03:01:13;;;;;;;101.82;64.50;;;;;;;;;;6179816;23;20014;-80
2021/11/18 03:04:01;;;;;;;92.63;63.33;;;;;;;;;;6094798;23;20078;-79
2021/11/18 03:06:42;;;;;;;99.38;65.28;;;;;;;;;;6094245;23;20022;-80
2021/11/18 03:09:43;;;;;;;100.25;64.93;;;;;;;;;;6097083;23;19983;-80
2021/11/18 03:12:38;;;;;;;99.03;65.32;;;;;;;;;;6094657;23;20011;-79
2021/11/18 03:15:29;;;;;;;98.05;65.82;;;;;;;;;;5978257;24;20013;-79
2021/11/18 03:18:37;;;;;;;;;;;;;;;;;;;;;
2021/11/18 03:21:16;;;;;;;94.70;63.60;;;;;;;;;;5879770;24;20006;-79
2021/11/18 03:26:41;;;;;;;95.97;64.20;;;;;;;;;;5925757;24;20086;-80
2021/11/18 03:29:37;;;;;;;92.43;64.28;;;;;;;;;;5960908;24;20000;-80
2021/11/18 03:32:27;;;;;;;92.55;64.47;;;;;;;;;;6000883;23;20014;-81
2021/11/18 03:35:16;;;;;;;101.18;67.05;;;;;;;;;;6060548;23;20007;-80
2021/11/18 03:38:09;;;;;;;96.70;65.03;;;;;;;;;;6091695;23;20081;-81
2021/11/18 03:41:03;;;;;;;97.28;65.15;;;;;;;;;;6091905;23;20014;-79
2021/11/18 03:43:52;;;;;;;93.13;63.10;;;;;;;;;;6091135;23;20011;-80
2021/11/18 03:46:43;;;;;;;92.97;63.70;;;;;;;;;;6044757;23;20007;-80
2021/11/18 03:52:32;;;;;;;98.05;63.22;;;;;;;;;;6079985;23;20101;-80
2021/11/18 03:55:25;;;;;;;93.95;63.20;;;;;;;;;;6063739;23;20027;-80
2021/11/18 03:57:54;;;;;;;97.13;64.65;;;;;;;;;;6086404;23;19992;-79
2021/11/18 04:00:23;;;;;;;92.28;64.63;;;;;;;;;;6058947;23;20096;-79
2021/11/18 04:02:52;;;;;;;97.40;65.97;;;;;;;;;;6059348;23;20003;-79
2021/11/18 04:05:30;;;;;;;105.65;67.05;;;;;;;;;;6086067;23;20002;-79
2021/11/18 04:07:58;;;;;;;101.50;67.75;;;;;;;;;;6142492;23;20011;-80
2021/11/18 04:10:30;;;;;;;102.63;66.43;;;;;;;;;;6119341;23;20017;-79
2021/11/18 04:13:17;;;;;;;100.85;67.13;;;;;;;;;;6118636;23;20011;-79
2021/11/18 04:15:49;;;;;;;100.80;68.60;;;;;;;;;;6146614;23;20037;-80
2021/11/18 04:18:17;;;;;;;106.72;68.45;;;;;;;;;;6124956;23;20010;-80
2021/11/18 04:21:18;;;;;;;104.60;69.53;;;;;;;;;;6080657;23;20026;-80
2021/11/18 04:23:45;;;;;;;109.82;69.47;;;;;;;;;;6137285;23;20010;-80
2021/11/18 04:26:21;;;;;;;107.10;72.18;;;;;;;;;;6174511;23;20006;-80
2021/11/18 04:29:00;;;;;;;110.82;71.53;;;;;;;;;;6157070;23;20093;-80
2021/11/18 04:31:30;;;;;;;116.38;72.03;;;;;;;;;;6156008;23;20044;-81
2021/11/18 04:34:17;;;;;;;115.47;71.78;;;;;;;;;;6180846;23;20014;-80
2021/11/18 04:37:25;;;;;;;113.30;70.82;;;;;;;;;;6146155;23;20041;-80
2021/11/18 04:40:04;;;;;;;118.88;71.97;;;;;;;;;;6124395;23;20010;-80
2021/11/18 04:42:51;;;;;;;117.05;72.18;;;;;;;;;;6105372;23;20032;-80
2021/11/18 04:46:10;;;;;;;118.65;71.95;;;;;;;;;;6149919;23;20005;-81
2021/11/18 04:49:42;;;;;;;111.82;69.43;;;;;;;;;;6152310;23;20002;-80
2021/11/18 04:52:15;;;;;;;115.80;71.38;;;;;;;;;;6063924;23;19996;-80
2021/11/18 04:54:51;;;;;;;113.15;68.60;;;;;;;;;;6065535;23;20003;-79
2021/11/18 04:57:42;;;;;;;105.05;65.50;;;;;;;;;;6043688;23;20027;-80
2021/11/18 05:00:47;;;;;;;102.20;66.38;;;;;;;;;;6067579;23;20089;-80
2021/11/18 05:03:57;;;;;;;102.50;66.00;;;;;;;;;;6037945;23;20048;-80
2021/11/18 05:07:06;;;;;;;104.15;64.65;;;;;;;;;;6027414;23;20255;-80
2021/11/18 05:10:00;;;;;;;107.88;66.45;;;;;;;;;;6064117;23;20051;-80
2021/11/18 05:12:47;;;;;;;;;;;;;;;;;;6067924;23;20040;-79
2021/11/18 05:18:10;;;;;;;108.50;63.38;;;;;;;;;;6344783;22;20022;-80
2021/11/18 05:21:04;;;;;;;90.28;60.83;;;;;;;;;;6351545;22;20062;-80
2021/11/18 05:23:34;;;;;;;96.68;61.35;;;;;;;;;;6164669;23;19989;-79
2021/11/18 05:29:12;;;;;;;104.00;62.17;;;;;;;;;;6171934;23;20072;-80
2021/11/18 05:31:42;;;;;;;103.90;62.55;;;;;;;;;;6188876;23;19993;-81
2021/11/18 05:34:19;;;;;;;99.72;65.03;;;;;;;;;;6208957;23;19989;-81
2021/11/18 05:36:47;;;;;;;103.93;62.70;;;;;;;;;;6211636;23;20009;-79
2021/11/18 05:39:35;;;;;;;98.15;59.08;;;;;;;;;;6162734;23;19989;-80
2021/11/18 05:42:05;;;;;;;96.13;60.00;;;;;;;;;;6124708;23;20006;-80
2021/11/18 05:44:55;;;;;;;98.78;60.03;;;;;;;;;;6075319;23;20034;-79
2021/11/18 05:47:41;;;;;;;100.00;60.65;;;;;;;;;;6124373;23;19998;-80
2021/11/18 05:50:31;;;;;;;91.03;56.72;;;;;;;;;;6104286;23;20018;-80
2021/11/18 05:53:41;;;;;;;99.30;59.30;;;;;;;;;;6123862;23;20001;-80
2021/11/18 05:56:39;;;;;;;101.68;60.30;;;;;;;;;;6125029;23;19999;-80
2021/11/18 05:59:25;;;;;;;94.88;59.60;;;;;;;;;;6099337;23;19997;-80
2021/11/18 06:02:01;;;;;;;96.03;58.10;;;;;;;;;;6200571;23;20016;-79
2021/11/18 06:04:32;;;;;;;94.88;56.95;;;;;;;;;;6213330;23;19989;-80
2021/11/18 06:07:40;;;;;;;97.43;56.90;;;;;;;;;;6239234;23;20071;-81
2021/11/18 06:10:35;;;;;;;99.95;57.72;;;;;;;;;;6239270;23;20013;-81
2021/11/18 06:13:26;;;;;;;97.45;57.70;;;;;;;;;;6142875;23;20066;-79
2021/11/18 06:16:21;;;;;;;96.80;55.70;;;;;;;;;;6143531;23;20042;-80
2021/11/18 06:22:10;;;;;;;93.70;57.25;;;;;;;;;;6340787;22;20003;-82
2021/11/18 06:24:37;;;;;;;105.43;61.13;;;;;;;;;;6319577;22;20449;-78
2021/11/18 06:27:04;;;;;;;130.45;76.75;;;;;;;;;;6325163;22;20013;-77
2021/11/18 06:29:31;;;;;;;147.95;90.55;;;;;;;;;;6314424;22;20007;-80
2021/11/18 06:35:09;;;;;;;108.45;64.10;;;;;;;;;;6333640;22;20081;-80
2021/11/18 06:37:58;;;;;;;98.32;59.45;;;;;;;;;;6329602;22;20014;-77
2021/11/18 06:40:24;;;;;;;94.22;55.45;;;;;;;;;;6295501;22;20007;-79
2021/11/18 06:42:51;;;;;;;96.13;56.13;;;;;;;;;;6274974;22;20007;-80
2021/11/18 06:45:22;;;;;;;92.93;54.50;;;;;;;;;;6302371;22;20041;-79
2021/11/18 06:47:52;;;;;;;94.47;54.60;;;;;;;;;;6299847;22;20055;-79
2021/11/18 06:50:35;;;;;;;81.43;48.95;;;;;;;;;;6276112;22;20003;-80
2021/11/18 06:53:04;;;;;;;84.97;53.35;;;;;;;;;;6301354;22;19996;-79
2021/11/18 06:55:33;;;;;;;91.07;52.83;;;;;;;;;;6276324;22;19999;-79
2021/11/18 06:58:00;;;;;;;93.25;53.15;;;;;;;;;;6275148;22;20007;-79
2021/11/18 07:00:26;;;;;;;84.72;51.42;;;;;;;;;;6275710;22;20027;-80
2021/11/18 07:02:52;;;;;;;87.57;53.40;;;;;;;;;;6275878;22;20008;-80
2021/11/18 07:05:20;;;;;;;90.28;52.17;;;;;;;;;;6275233;22;20015;-79
2021/11/18 07:07:46;;;;;;;90.10;51.50;;;;;;;;;;6275119;22;20007;-80
2021/11/18 07:10:12;;;;;;;89.88;52.38;;;;;;;;;;6275579;22;20011;-79
2021/11/18 07:12:41;;;;;;;88.50;50.92;;;;;;;;;;6275762;22;20045;-79
2021/11/18 07:15:13;;;;;;;91.20;51.53;;;;;;;;;;6301827;22;20000;-79
2021/11/18 07:17:40;;;;;;;85.78;51.50;;;;;;;;;;6299707;22;19995;-80
2021/11/18 07:20:06;;;;;;;89.00;50.65;;;;;;;;;;6333212;22;19999;-80
2021/11/18 07:22:37;;;;;;;86.90;50.85;;;;;;;;;;6332353;22;20019;-80
2021/11/18 07:25:04;;;;;;;83.30;51.08;;;;;;;;;;6307789;22;20011;-80
2021/11/18 07:27:31;;;;;;;87.10;52.22;;;;;;;;;;6363693;22;20425;-80
2021/11/18 07:29:57;;;;;;;90.88;53.38;;;;;;;;;;6338671;22;19999;-79
2021/11/18 07:35:01;;;;;;;90.65;51.83;;;;;;;;;;6356165;22;20193;-79
2021/11/18 07:37:47;;;;;;;90.10;52.90;;;;;;;;;;6365220;22;20083;-79
2021/11/18 07:40:17;;;;;;;81.22;51.00;;;;;;;;;;6366500;22;20012;-80
2021/11/18 07:42:46;;;;;;;85.00;49.20;;;;;;;;;;6338851;22;20011;-79
2021/11/18 07:45:18;;;;;;;82.47;49.28;;;;;;;;;;6339356;22;20018;-79
2021/11/18 07:47:49;;;;;;;80.53;49.42;;;;;;;;;;6313859;22;19990;-79
2021/11/18 07:50:18;;;;;;;66.32;43.75;;;;;;;;;;6362986;22;20031;-79
2021/11/18 07:53:06;;;;;;;74.78;45.58;;;;;;;;;;6353785;22;19991;-79
2021/11/18 07:55:36;;;;;;;67.97;42.97;;;;;;;;;;6312549;22;20333;-79
2021/11/18 07:58:08;;;;;;;59.78;37.15;;;;;;;;;;6337583;22;19998;-79
2021/11/18 08:00:46;;;;;;;51.35;32.88;;;;;;;;;;6360881;22;20007;-80
2021/11/18 08:03:48;;;;;;;53.88;34.78;;;;;;;;;;6365588;22;20032;-79
2021/11/18 08:06:24;;;;;;;50.60;34.25;;;;;;;;;;6299026;22;19991;-79
2021/11/18 08:08:58;;;;;;;54.33;33.08;;;;;;;;;;6325866;22;20011;-79
2021/11/18 08:12:08;;;;;;;48.55;32.15;;;;;;;;;;6195865;23;20011;-79
2021/11/18 08:14:40;;;;;;;54.15;34.38;;;;;;;;;;6097390;23;20042;-79
2021/11/18 08:17:07;;;;;;;54.38;33.75;;;;;;;;;;6121510;23;19991;-79
2021/11/18 08:19:33;;;;;;;46.90;30.83;;;;;;;;;;6122282;23;20049;-80
2021/11/18 08:22:02;;;;;;;52.92;32.13;;;;;;;;;;6121955;23;20026;-79
2021/11/18 08:24:28;;;;;;;46.35;31.50;;;;;;;;;;6122094;23;19994;-80
2021/11/18 08:26:56;;;;;;;49.88;33.13;;;;;;;;;;6121580;23;20010;-80
2021/11/18 08:29:25;;;;;;;50.83;31.48;;;;;;;;;;6120995;23;20476;-80
2021/11/18 08:31:51;;;;;;;48.33;31.75;;;;;;;;;;6122925;23;20066;-79
2021/11/18 08:34:19;;;;;;;47.95;31.25;;;;;;;;;;6124221;23;20007;-80
2021/11/18 08:36:47;;;;;;;47.92;29.92;;;;;;;;;;6078707;23;20019;-80
2021/11/18 08:39:20;;;;;;;43.25;27.98;;;;;;;;;;6042234;23;20000;-79
2021/11/18 08:41:46;;;;;;;;;;;;;;;;;;6074751;23;20011;-80
2021/11/18 08:44:12;;;;;;;37.38;25.75;;;;;;;;;;6145560;23;19923;-80
2021/11/18 08:46:59;;;;;;;39.65;25.48;;;;;;;;;;6182408;23;20016;-79
2021/11/18 08:50:07;;;;;;;36.42;24.98;;;;;;;;;;6152885;23;20010;-79
2021/11/18 08:52:59;;;;;;;37.03;24.65;;;;;;;;;;6180898;23;19986;-80
2021/11/18 08:55:51;;;;;;;37.85;24.52;;;;;;;;;;6037346;23;20047;-79
2021/11/18 08:59:01;;;;;;;41.80;25.08;;;;;;;;;;6033118;23;20010;-80
2021/11/18 09:02:05;;;;;;;39.90;24.95;;;;;;;;;;6033735;23;20003;-80
2021/11/18 09:10:00;;;;;;;36.25;24.52;;;;;;;;;;6314772;22;20023;-80
2021/11/18 09:12:53;;;;;;;39.70;25.45;;;;;;;;;;6305049;22;20008;-80
2021/11/18 09:15:26;;;;;;;40.95;25.83;;;;;;;;;;6303757;22;19988;-79
2021/11/18 09:18:21;;;;;;;38.23;26.40;;;;;;;;;;6218138;23;19985;-80
2021/11/18 09:21:23;;;;;;;37.88;25.45;;;;;;;;;;6217246;23;20023;-80
2021/11/18 09:24:14;;;;;;;35.17;21.63;;;;;;;;;;6121680;23;20002;-79
2021/11/18 09:27:09;;;;;;;30.83;20.58;;;;;;;;;;6117651;23;20006;-80
2021/11/18 09:30:01;;;;;;;32.80;21.70;;;;;;;;;;6098467;23;20026;-80
2021/11/18 09:33:04;;;;;;;33.50;21.50;;;;;;;;;;6080102;23;20070;-80
2021/11/18 09:35:39;;;;;;;32.30;20.52;;;;;;;;;;6118747;23;20030;-80
2021/11/18 09:38:21;;;;;;;30.70;20.95;;;;;;;;;;6122925;23;20077;-79
2021/11/18 09:41:14;;;;;;;33.17;23.30;;;;;;;;;;6110146;23;20013;-80
2021/11/18 09:44:02;;;;;;;27.67;19.27;;;;;;;;;;6113476;23;20044;-80
2021/11/18 09:47:13;;;;;;;26.58;19.02;;;;;;;;;;6097293;23;20009;-79
2021/11/18 09:49:58;;;;;;;28.08;19.40;;;;;;;;;;6092481;23;20003;-80
2021/11/18 09:52:46;;;;;;;27.02;19.23;;;;;;;;;;6043724;23;20003;-80
2021/11/18 09:55:17;;;;;;;28.85;20.70;;;;;;;;;;6105515;23;20003;-80
2021/11/18 09:58:07;;;;;;;26.02;17.42;;;;;;;;;;6119205;23;20042;-81
2021/11/18 10:01:17;;;;;;;25.92;17.77;;;;;;;;;;6166045;23;20016;-79
2021/11/18 10:04:00;;;;;;;26.85;18.52;;;;;;;;;;6205576;23;20030;-80
2021/11/18 10:06:46;;;;;;;34.92;18.58;;;;;;;;;;6166482;23;19991;-80
2021/11/18 10:09:41;;;;;;;30.80;20.23;;;;;;;;;;6241263;23;19991;-80
2021/11/18 10:12:32;;;;;;;31.75;18.80;;;;;;;;;;6184640;23;20050;-80
2021/11/18 10:15:02;;;;;;;26.88;17.77;;;;;;;;;;6215312;23;20000;-80
2021/11/18 10:17:56;;;;;;;24.27;16.67;;;;;;;;;;6214171;23;20005;-81
2021/11/18 10:20:33;;;;;;;24.73;16.02;;;;;;;;;;6059997;23;20008;-79
2021/11/18 10:23:16;;;;;;;27.90;18.25;;;;;;;;;;6148639;23;20074;-79
2021/11/18 10:26:13;;;;;;;25.02;18.33;;;;;;;;;;6110042;23;20043;-80
2021/11/18 10:28:42;;;;;;;23.60;16.35;;;;;;;;;;6097181;23;20080;-80
2021/11/18 10:31:36;;;;;;;23.60;16.75;;;;;;;;;;6121358;23;20006;-79
2021/11/18 10:34:40;;;;;;;32.78;22.52;;;;;;;;;;6120929;23;19990;-80
2021/11/18 10:37:48;;;;;;;31.73;21.88;;;;;;;;;;6097501;23;19992;-80
2021/11/18 10:43:22;;;;;;;26.15;17.88;;;;;;;;;;6099946;23;20097;-77
2021/11/18 10:45:55;;;;;;;24.23;15.93;;;;;;;;;;6114753;23;20034;-79
2021/11/18 10:48:33;;;;;;;24.95;16.95;;;;;;;;;;6109761;23;20007;-75
2021/11/18 10:54:04;;;;;;;22.13;16.13;;;;;;;;;;6347919;22;20027;-77
2021/11/18 10:56:45;;;;;;;22.73;15.85;;;;;;;;;;6313301;22;20014;-77
2021/11/18 11:02:41;;;;;;;29.05;15.40;;;;;;;;;;6363792;22;20028;-77
2021/11/18 11:05:39;;;;;;;22.30;16.08;;;;;;;;;;6271809;22;20008;-76
2021/11/18 11:08:28;;;;;;;27.40;19.17;;;;;;;;;;6266896;23;20377;-76
2021/11/18 11:11:14;;;;;;;25.50;16.70;;;;;;;;;;6271705;23;20004;-78
2021/11/18 11:13:59;;;;;;;22.05;15.88;;;;;;;;;;6222346;23;20527;-77
2021/11/18 11:19:56;;;;;;;22.55;16.20;;;;;;;;;;6266896;23;20006;-78
2021/11/18 11:23:02;;;;;;;22.27;15.85;;;;;;;;;;6264484;23;20020;-78
2021/11/18 11:26:00;;;;;;;26.60;16.05;;;;;;;;;;6219010;22;20000;-79
2021/11/18 11:28:46;;;;;;;26.65;16.25;;;;;;;;;;6217999;23;20056;-77
2021/11/18 11:41:00;;;;;;;26.77;17.45;;;;;;;;;;6327079;22;20021;-78
2021/11/18 11:43:42;;;;;;;26.50;18.25;;;;;;;;;;6318548;22;20371;-77
2021/11/18 11:46:15;;;;;;;28.88;18.80;;;;;;;;;;6317573;22;20007;-78
2021/11/18 11:49:01;;;;;;;25.93;17.87;;;;;;;;;;6316703;22;19999;-79
2021/11/18 11:51:48;;;;;;;23.92;16.52;;;;;;;;;;6299963;22;20237;-81
2021/11/18 11:54:33;;;;;;;29.27;18.13;;;;;;;;;;6311791;22;20417;-76
2021/11/18 11:57:01;;;;;;;21.67;15.65;;;;;;;;;;6288123;22;20026;-76
2021/11/18 11:59:31;;;;;;;26.77;19.25;;;;;;;;;;6322350;22;20019;-78
2021/11/18 12:15:31;;;;;;;25.77;16.55;;;;;;;;;;6334784;22;19918;-74
2021/11/18 12:18:17;;;;;;;24.90;16.73;;;;;;;;;;6352741;22;20005;-75
2021/11/18 12:24:11;;;;;;;22.73;17.10;;;;;;;;;;6363616;22;20038;-79
2021/11/18 12:26:56;;;;;;;22.17;16.30;;;;;;;;;;6348290;22;20006;-76
2021/11/18 12:29:58;;;;;;;27.50;17.10;;;;;;;;;;6355699;22;19999;-77
2021/11/18 12:32:31;;;;;;;29.35;17.52;;;;;;;;;;6262460;22;20011;-78
2021/11/18 12:35:16;;;;;;;26.83;17.95;;;;;;;;;;6228977;23;20066;-78
2021/11/18 12:37:45;;;;;;;54.13;22.40;;;;;;;;;;6257206;23;20009;-77
2021/11/18 12:40:42;;;;;;;23.45;17.33;;;;;;;;;;6263987;23;20004;-77
2021/11/18 14:00:19;;;;;;;26.00;17.20;;;;;;;;;;6339612;22;20015;-79
2021/11/18 14:03:09;;;;;;;26.17;17.45;;;;;;;;;;6333390;22;20030;-79
2021/11/18 14:10:52;;;;;;;30.25;18.63;;;;;;;;;;6353128;22;19947;-77
2021/11/18 14:13:37;;;;;;;32.38;22.75;;;;;;;;;;6337728;22;19986;-77
2021/11/18 14:16:32;;;;;;;31.35;20.48;;;;;;;;;;6339275;22;20013;-79
2021/11/18 14:41:38;;;;;;;31.73;20.13;;;;;;;;;;6353698;22;20026;-78
2021/11/18 14:44:06;;;;;;;31.35;19.83;;;;;;;;;;6324305;22;20062;-76
2021/11/18 14:46:55;;;;;;;29.75;20.52;;;;;;;;;;6353094;22;20055;-78
2021/11/18 14:49:40;;;;;;;30.77;20.40;;;;;;;;;;6204269;23;20025;-79
2021/11/18 14:52:37;;;;;;;30.35;19.67;;;;;;;;;;6206281;23;20001;-79
2021/11/18 14:55:23;;;;;;;34.83;21.88;;;;;;;;;;6210046;23;19989;-78
2021/11/18 14:58:11;;;;;;;29.52;19.88;;;;;;;;;;6203351;23;20065;-77
2021/11/18 15:00:46;;;;;;;32.17;19.70;;;;;;;;;;6202475;23;20040;-78
2021/11/18 15:03:20;;;;;;;35.20;20.95;;;;;;;;;;6172186;23;20012;-78
2021/11/18 15:05:48;;;;;;;35.85;21.70;;;;;;;;;;6169838;23;20016;-74
2021/11/18 15:08:24;;;;;;;32.47;20.80;;;;;;;;;;6167073;23;20011;-77
2021/11/18 15:11:07;;;;;;;34.67;20.60;;;;;;;;;;6169613;23;20016;-77
2021/11/18 15:13:36;;;;;;;32.63;20.27;;;;;;;;;;6137335;23;20013;-77
2021/11/18 15:16:11;;;;;;;30.20;20.05;;;;;;;;;;6110654;23;20010;-77
2021/11/18 15:18:58;;;;;;;;;;;;;;;;;;;;;
2021/11/18 15:24:55;;;;;;;37.70;21.83;;;;;;;;;;6183137;23;20035;-76
2021/11/18 15:27:53;;;;;;;38.72;22.20;;;;;;;;;;6287929;22;20062;-80
2021/11/18 16:41:28;;;;;;;48.53;28.50;;;;;;;;;;6347752;22;20010;-80
2021/11/18 16:43:56;;;;;;;43.08;26.83;;;;;;;;;;6367517;22;20018;-78
2021/11/18 16:46:23;;;;;;;47.83;30.58;;;;;;;;;;6307080;22;20015;-76
2021/11/18 16:48:50;;;;;;;51.97;29.48;;;;;;;;;;6337559;22;19990;-76
2021/11/18 16:51:21;;;;;;;53.47;32.15;;;;;;;;;;6366042;22;20010;-76
2021/11/18 16:53:54;;;;;;;52.75;31.50;;;;;;;;;;6365578;22;20029;-76
2021/11/18 16:56:25;;;;;;;59.97;35.20;;;;;;;;;;6362956;22;20002;-78
2021/11/18 17:07:06;;;;;;;49.90;31.00;;;;;;;;;;6338222;22;20015;-78
2021/11/18 17:09:34;;;;;;;44.88;28.88;;;;;;;;;;6338201;22;20005;-78
2021/11/18 17:12:15;;;;;;;40.85;26.38;;;;;;;;;;6366736;22;20029;-79
2021/11/18 17:14:44;;;;;;;55.97;30.98;;;;;;;;;;6362796;22;20050;-78
2021/11/18 17:21:04;;;;;;;41.85;27.35;;;;;;;;;;6301197;22;20019;-80
2021/11/18 17:24:20;;;;;;;45.97;29.77;;;;;;;;;;6212788;23;20471;-82
2021/11/18 17:47:53;;;;;;;33.47;19.67;;;;;;;;;;6342625;22;20095;-77
2021/11/18 17:50:21;;;;;;;31.48;20.70;;;;;;;;;;6312239;22;19998;-78
2021/11/18 17:52:48;;;;;;;31.92;20.77;;;;;;;;;;6313844;22;20007;-77
2021/11/18 17:55:16;;;;;;;37.67;24.02;;;;;;;;;;6313600;22;19998;-77
2021/11/18 17:57:42;;;;;;;32.15;20.65;;;;;;;;;;6341610;22;20060;-76
2021/11/18 18:00:21;;;;;;;32.63;19.92;;;;;;;;;;6341746;22;20448;-76
2021/11/18 18:02:47;;;;;;;35.33;20.55;;;;;;;;;;6313632;22;20145;-76
2021/11/18 18:05:13;;;;;;;29.75;20.13;;;;;;;;;;6310596;22;20086;-77
2021/11/18 18:07:39;;;;;;;30.13;19.58;;;;;;;;;;6311078;22;20010;-76
2021/11/18 18:10:07;;;;;;;32.95;20.45;;;;;;;;;;6313142;22;20359;-77
2021/11/18 18:12:33;;;;;;;33.10;22.05;;;;;;;;;;6342436;22;20003;-79
2021/11/18 18:15:00;;;;;;;37.15;22.13;;;;;;;;;;6340597;22;19998;-77
2021/11/18 18:17:30;;;;;;;34.40;21.50;;;;;;;;;;6339801;22;20306;-76
2021/11/18 18:19:56;;;;;;;34.28;21.83;;;;;;;;;;6340188;22;20010;-77
2021/11/18 18:22:23;;;;;;;33.03;21.55;;;;;;;;;;6339714;22;20512;-78
2021/11/18 18:24:49;;;;;;;49.20;27.75;;;;;;;;;;6312761;22;19999;-77
2021/11/18 18:27:20;;;;;;;52.03;30.50;;;;;;;;;;6340629;22;20433;-77
2021/11/18 18:29:46;;;;;;;69.70;41.25;;;;;;;;;;6314907;22;19999;-77
2021/11/18 18:32:15;;;;;;;32.90;22.52;;;;;;;;;;6314335;22;19999;-77
2021/11/18 18:34:44;;;;;;;36.72;22.70;;;;;;;;;;6313221;22;20003;-77
2021/11/18 18:37:10;;;;;;;31.55;20.77;;;;;;;;;;6311144;22;20396;-76
2021/11/18 18:39:41;;;;;;;33.65;20.33;;;;;;;;;;6311434;22;20003;-76
2021/11/18 18:42:08;;;;;;;34.00;21.55;;;;;;;;;;6339984;22;20083;-76
2021/11/18 18:44:34;;;;;;;31.45;21.02;;;;;;;;;;6339611;22;20410;-76
2021/11/18 18:47:02;;;;;;;39.50;23.33;;;;;;;;;;6338836;22;20037;-77
2021/11/18 18:49:30;;;;;;;33.63;22.25;;;;;;;;;;6339908;22;20396;-77
2021/11/18 18:52:01;;;;;;;37.55;21.92;;;;;;;;;;6339065;22;20003;-77
2021/11/18 18:54:28;;;;;;;36.30;22.50;;;;;;;;;;6342798;22;20335;-77
2021/11/18 18:56:54;;;;;;;40.83;23.48;;;;;;;;;;6348287;22;20434;-79
2021/11/18 18:59:22;;;;;;;38.53;24.60;;;;;;;;;;6325586;22;20002;-76
2021/11/18 19:04:43;;;;;;;44.33;26.35;;;;;;;;;;6336098;22;20360;-78
2021/11/18 19:07:13;;;;;;;45.92;27.65;;;;;;;;;;6352816;22;20006;-79
2021/11/18 19:12:29;;;;;;;49.78;31.02;;;;;;;;;;6352649;22;20020;-78
2021/11/18 19:17:35;;;;;;;49.80;29.40;;;;;;;;;;6345932;22;19968;-78
2021/11/18 19:20:03;;;;;;;46.92;27.38;;;;;;;;;;6345933;22;20010;-77
2021/11/18 19:22:31;;;;;;;44.28;26.85;;;;;;;;;;6346056;22;20015;-75
2021/11/18 19:24:58;;;;;;;40.83;24.92;;;;;;;;;;6346475;22;19999;-76
2021/11/18 19:27:27;;;;;;;43.47;23.92;;;;;;;;;;6345449;22;19999;-76
2021/11/18 19:32:29;;;;;;;42.38;26.58;;;;;;;;;;6357228;22;20007;-75
2021/11/18 19:34:56;;;;;;;47.50;26.42;;;;;;;;;;6348371;22;20413;-75
2021/11/18 19:37:25;;;;;;;44.17;26.08;;;;;;;;;;6348615;22;20333;-76
2021/11/18 19:39:52;;;;;;;42.20;25.70;;;;;;;;;;6321535;22;19999;-75
2021/11/18 19:42:19;;;;;;;46.45;27.30;;;;;;;;;;6348201;22;20013;-76
2021/11/18 19:44:50;;;;;;;40.05;24.25;;;;;;;;;;6347588;22;20356;-76
2021/11/18 19:47:17;;;;;;;40.80;25.05;;;;;;;;;;6321410;22;20010;-76
2021/11/18 19:49:44;;;;;;;42.88;25.05;;;;;;;;;;6351493;22;20006;-76
2021/11/18 19:52:37;;;;;;;47.38;28.83;;;;;;;;;;6325247;22;20010;-78
2021/11/18 19:55:27;;;;;;;48.70;29.30;;;;;;;;;;6359625;22;20002;-78
2021/11/18 20:10:52;;;;;;;42.58;23.80;;;;;;;;;;6287080;22;20086;-78
2021/11/18 20:13:21;;;;;;;37.38;23.02;;;;;;;;;;6259527;22;20012;-77
2021/11/18 20:15:57;;;;;;;42.03;24.65;;;;;;;;;;6289164;22;20322;-77
2021/11/18 20:18:24;;;;;;;37.45;23.98;;;;;;;;;;6267134;22;20105;-75
2021/11/18 20:20:52;;;;;;;41.65;24.80;;;;;;;;;;6295132;22;20007;-77
2021/11/18 20:23:24;;;;;;;36.88;24.30;;;;;;;;;;6258970;22;20012;-76
2021/11/18 20:25:59;;;;;;;39.50;24.13;;;;;;;;;;6271241;22;20087;-78
2021/11/18 20:28:28;;;;;;;43.22;25.98;;;;;;;;;;6296882;22;19999;-73
2021/11/18 20:31:00;;;;;;;38.97;24.23;;;;;;;;;;6294520;22;20004;-75
2021/11/18 20:33:28;;;;;;;43.80;26.33;;;;;;;;;;6269660;22;20008;-74
2021/11/18 20:36:04;;;;;;;41.58;25.42;;;;;;;;;;6268892;22;20059;-75
2021/11/18 20:38:30;;;;;;;41.15;25.52;;;;;;;;;;6272295;22;20011;-75
2021/11/18 20:40:58;;;;;;;42.75;26.15;;;;;;;;;;6299562;22;20022;-74
2021/11/18 20:43:27;;;;;;;44.17;25.38;;;;;;;;;;6275720;22;19992;-75
2021/11/18 20:45:54;;;;;;;44.75;25.67;;;;;;;;;;6273471;22;19990;-76
2021/11/18 20:48:21;;;;;;;38.75;24.38;;;;;;;;;;6272212;22;20003;-75
2021/11/18 20:53:51;;;;;;;37.77;22.87;;;;;;;;;;6303148;22;19994;-74
2021/11/18 20:56:18;;;;;;;39.08;23.55;;;;;;;;;;6275619;22;20064;-75
2021/11/18 20:58:46;;;;;;;43.80;24.20;;;;;;;;;;6275611;22;19995;-75
2021/11/18 21:01:14;;;;;;;38.38;23.45;;;;;;;;;;6274968;22;20023;-75
2021/11/18 21:03:43;;;;;;;38.90;23.95;;;;;;;;;;6301276;22;20055;-78
2021/11/18 21:06:11;;;;;;;37.58;24.27;;;;;;;;;;6299229;22;20007;-78
2021/11/18 21:08:38;;;;;;;40.33;24.30;;;;;;;;;;6324994;22;20094;-78
2021/11/18 21:11:07;;;;;;;35.50;23.15;;;;;;;;;;6321384;22;20071;-78
2021/11/18 21:13:34;;;;;;;37.70;23.60;;;;;;;;;;6323075;22;20000;-78